sensor_id;sensor_type;location;lat;lon;timestamp;P1;durP1;ratioP1;P2;durP2;ratioP2
56102;SDS011;41970;48.774;9.280;2023-01-09T00:01:49;6.00;;;4.50;;
56102;SDS011;41970;48.774;9.280;2023-01-09T00:04:18;5.07;;;4.57;;
56102;SDS011;41970;48.774;9.280;2023-01-09T00:06:44;4.30;;;3.00;;
56102;SDS011;41970;48.774;9.280;2023-01-09T00:09:21;3.50;;;3.20;;
56102;SDS011;41970;48.774;9.280;2023-01-09T00:11:48;4.07;;;3.73;;
56102;SDS011;41970;48.774;9.280;2023-01-09T00:14:15;3.70;;;3.40;;
56102;SDS011;41970;48.774;9.280;2023-01-09T00:16:42;4.40;;;3.97;;
56102;SDS011;41970;48.774;9.280;2023-01-09T00:19:08;5.57;;;4.70;;
56102;SDS011;41970;48.774;9.280;2023-01-09T00:21:34;3.53;;;3.23;;
56102;SDS011;41970;48.774;9.280;2023-01-09T00:24:03;4.13;;;3.57;;
56102;SDS011;41970;48.774;9.280;2023-01-09T00:26:30;3.63;;;3.33;;
56102;SDS011;41970;48.774;9.280;2023-01-09T00:28:58;2.77;;;2.40;;
56102;SDS011;41970;48.774;9.280;2023-01-09T00:31:24;3.43;;;3.13;;
56102;SDS011;41970;48.774;9.280;2023-01-09T00:36:22;3.20;;;2.90;;
56102;SDS011;41970;48.774;9.280;2023-01-09T00:38:48;3.20;;;2.37;;
56102;SDS011;41970;48.774;9.280;2023-01-09T00:41:15;3.70;;;3.37;;
56102;SDS011;41970;48.774;9.280;2023-01-09T00:43:52;3.20;;;2.90;;
56102;SDS011;41970;48.774;9.280;2023-01-09T00:46:21;3.37;;;3.07;;
56102;SDS011;41970;48.774;9.280;2023-01-09T00:48:55;3.90;;;3.40;;
56102;SDS011;41970;48.774;9.280;2023-01-09T00:51:23;3.60;;;3.20;;
56102;SDS011;41970;48.774;9.280;2023-01-09T00:53:49;3.37;;;3.07;;
56102;SDS011;41970;48.774;9.280;2023-01-09T00:56:17;3.10;;;2.80;;
56102;SDS011;41970;48.774;9.280;2023-01-09T00:58:44;3.20;;;2.80;;
56102;SDS011;41970;48.774;9.280;2023-01-09T01:01:14;3.30;;;2.97;;
56102;SDS011;41970;48.774;9.280;2023-01-09T01:03:40;2.87;;;2.57;;
56102;SDS011;41970;48.774;9.280;2023-01-09T01:06:05;2.60;;;2.40;;
56102;SDS011;41970;48.774;9.280;2023-01-09T01:08:50;3.60;;;2.83;;
56102;SDS011;41970;48.774;9.280;2023-01-09T01:11:19;2.27;;;2.07;;
56102;SDS011;41970;48.774;9.280;2023-01-09T01:13:45;2.10;;;1.90;;
56102;SDS011;41970;48.774;9.280;2023-01-09T01:16:11;2.13;;;1.90;;
56102;SDS011;41970;48.774;9.280;2023-01-09T01:18:38;2.20;;;2.00;;
56102;SDS011;41970;48.774;9.280;2023-01-09T01:21:07;2.07;;;1.93;;
56102;SDS011;41970;48.774;9.280;2023-01-09T01:23:35;2.30;;;1.97;;
56102;SDS011;41970;48.774;9.280;2023-01-09T01:26:03;2.00;;;1.80;;
56102;SDS011;41970;48.774;9.280;2023-01-09T01:28:30;1.60;;;1.50;;
56102;SDS011;41970;48.774;9.280;2023-01-09T01:30:56;2.70;;;1.87;;
56102;SDS011;41970;48.774;9.280;2023-01-09T01:33:22;2.30;;;2.10;;
56102;SDS011;41970;48.774;9.280;2023-01-09T01:35:51;5.53;;;2.17;;
56102;SDS011;41970;48.774;9.280;2023-01-09T01:38:25;1.90;;;1.70;;
56102;SDS011;41970;48.774;9.280;2023-01-09T01:40:51;2.00;;;1.57;;
56102;SDS011;41970;48.774;9.280;2023-01-09T01:43:18;2.33;;;1.50;;
56102;SDS011;41970;48.774;9.280;2023-01-09T01:45:43;2.60;;;1.70;;
56102;SDS011;41970;48.774;9.280;2023-01-09T01:50:49;1.50;;;1.40;;
56102;SDS011;41970;48.774;9.280;2023-01-09T01:53:29;1.83;;;1.27;;
56102;SDS011;41970;48.774;9.280;2023-01-09T01:56:03;1.43;;;1.20;;
56102;SDS011;41970;48.774;9.280;2023-01-09T01:58:36;1.70;;;1.60;;
56102;SDS011;41970;48.774;9.280;2023-01-09T02:01:08;2.30;;;1.27;;
56102;SDS011;41970;48.774;9.280;2023-01-09T02:03:34;1.20;;;0.90;;
56102;SDS011;41970;48.774;9.280;2023-01-09T02:06:03;1.80;;;1.43;;
56102;SDS011;41970;48.774;9.280;2023-01-09T02:08:29;1.30;;;1.20;;
56102;SDS011;41970;48.774;9.280;2023-01-09T02:10:56;1.60;;;1.40;;
56102;SDS011;41970;48.774;9.280;2023-01-09T02:13:22;1.23;;;1.13;;
56102;SDS011;41970;48.774;9.280;2023-01-09T02:16:09;1.33;;;1.23;;
56102;SDS011;41970;48.774;9.280;2023-01-09T02:27:44;1.40;;;1.30;;
56102;SDS011;41970;48.774;9.280;2023-01-09T02:38:09;1.30;;;1.20;;
56102;SDS011;41970;48.774;9.280;2023-01-09T02:43:28;2.23;;;2.10;;
56102;SDS011;41970;48.774;9.280;2023-01-09T02:45:55;2.17;;;2.07;;
56102;SDS011;41970;48.774;9.280;2023-01-09T02:48:21;1.67;;;1.50;;
56102;SDS011;41970;48.774;9.280;2023-01-09T02:51:03;3.60;;;1.07;;
56102;SDS011;41970;48.774;9.280;2023-01-09T02:56:33;1.37;;;1.10;;
56102;SDS011;41970;48.774;9.280;2023-01-09T02:59:22;1.90;;;1.30;;
56102;SDS011;41970;48.774;9.280;2023-01-09T03:02:27;1.87;;;0.90;;
56102;SDS011;41970;48.774;9.280;2023-01-09T03:05:08;1.40;;;1.10;;
56102;SDS011;41970;48.774;9.280;2023-01-09T03:07:45;3.90;;;1.20;;
56102;SDS011;41970;48.774;9.280;2023-01-09T03:10:24;1.17;;;1.00;;
56102;SDS011;41970;48.774;9.280;2023-01-09T03:13:03;1.63;;;1.13;;
56102;SDS011;41970;48.774;9.280;2023-01-09T03:15:33;2.20;;;1.23;;
56102;SDS011;41970;48.774;9.280;2023-01-09T03:18:01;1.87;;;1.00;;
56102;SDS011;41970;48.774;9.280;2023-01-09T03:20:29;1.90;;;1.47;;
56102;SDS011;41970;48.774;9.280;2023-01-09T03:22:57;1.13;;;1.03;;
56102;SDS011;41970;48.774;9.280;2023-01-09T03:25:25;1.97;;;1.30;;
56102;SDS011;41970;48.774;9.280;2023-01-09T03:27:56;1.30;;;1.20;;
56102;SDS011;41970;48.774;9.280;2023-01-09T03:30:24;1.00;;;0.83;;
56102;SDS011;41970;48.774;9.280;2023-01-09T03:32:52;2.80;;;0.80;;
56102;SDS011;41970;48.774;9.280;2023-01-09T03:35:18;2.43;;;0.77;;
56102;SDS011;41970;48.774;9.280;2023-01-09T03:37:44;0.83;;;0.80;;
56102;SDS011;41970;48.774;9.280;2023-01-09T03:40:10;1.20;;;1.00;;
56102;SDS011;41970;48.774;9.280;2023-01-09T03:42:36;2.43;;;1.13;;
56102;SDS011;41970;48.774;9.280;2023-01-09T03:45:02;1.80;;;1.20;;
56102;SDS011;41970;48.774;9.280;2023-01-09T03:47:31;1.10;;;0.90;;
56102;SDS011;41970;48.774;9.280;2023-01-09T03:49:57;2.10;;;1.00;;
56102;SDS011;41970;48.774;9.280;2023-01-09T03:52:23;1.00;;;0.73;;
56102;SDS011;41970;48.774;9.280;2023-01-09T03:54:49;1.20;;;0.90;;
56102;SDS011;41970;48.774;9.280;2023-01-09T03:57:15;2.90;;;1.17;;
56102;SDS011;41970;48.774;9.280;2023-01-09T03:59:41;1.20;;;0.90;;
56102;SDS011;41970;48.774;9.280;2023-01-09T04:02:06;1.40;;;0.90;;
56102;SDS011;41970;48.774;9.280;2023-01-09T04:04:32;0.90;;;0.80;;
56102;SDS011;41970;48.774;9.280;2023-01-09T04:06:58;1.43;;;1.17;;
56102;SDS011;41970;48.774;9.280;2023-01-09T04:09:24;1.40;;;1.00;;
56102;SDS011;41970;48.774;9.280;2023-01-09T04:11:50;1.03;;;0.90;;
56102;SDS011;41970;48.774;9.280;2023-01-09T04:14:16;1.50;;;1.23;;
56102;SDS011;41970;48.774;9.280;2023-01-09T04:16:42;1.30;;;1.07;;
56102;SDS011;41970;48.774;9.280;2023-01-09T04:19:07;1.73;;;1.10;;
56102;SDS011;41970;48.774;9.280;2023-01-09T04:21:33;1.67;;;0.90;;
56102;SDS011;41970;48.774;9.280;2023-01-09T04:23:59;0.90;;;0.80;;
56102;SDS011;41970;48.774;9.280;2023-01-09T04:26:27;1.60;;;1.13;;
56102;SDS011;41970;48.774;9.280;2023-01-09T04:28:53;0.90;;;0.77;;
56102;SDS011;41970;48.774;9.280;2023-01-09T04:31:19;1.23;;;0.80;;
56102;SDS011;41970;48.774;9.280;2023-01-09T04:33:45;0.80;;;0.70;;
56102;SDS011;41970;48.774;9.280;2023-01-09T04:36:11;0.90;;;0.67;;
56102;SDS011;41970;48.774;9.280;2023-01-09T04:38:37;0.80;;;0.60;;
56102;SDS011;41970;48.774;9.280;2023-01-09T04:41:03;1.20;;;0.80;;
56102;SDS011;41970;48.774;9.280;2023-01-09T04:43:29;0.80;;;0.60;;
56102;SDS011;41970;48.774;9.280;2023-01-09T04:45:54;1.17;;;0.60;;
56102;SDS011;41970;48.774;9.280;2023-01-09T04:48:20;0.90;;;0.60;;
56102;SDS011;41970;48.774;9.280;2023-01-09T04:50:46;0.80;;;0.60;;
56102;SDS011;41970;48.774;9.280;2023-01-09T04:53:12;0.90;;;0.63;;
56102;SDS011;41970;48.774;9.280;2023-01-09T04:55:38;0.90;;;0.70;;
56102;SDS011;41970;48.774;9.280;2023-01-09T04:58:05;1.63;;;0.60;;
56102;SDS011;41970;48.774;9.280;2023-01-09T05:00:34;0.80;;;0.60;;
56102;SDS011;41970;48.774;9.280;2023-01-09T05:03:00;0.90;;;0.60;;
56102;SDS011;41970;48.774;9.280;2023-01-09T05:05:27;0.80;;;0.60;;
56102;SDS011;41970;48.774;9.280;2023-01-09T05:07:53;0.87;;;0.60;;
56102;SDS011;41970;48.774;9.280;2023-01-09T05:10:21;0.80;;;0.70;;
56102;SDS011;41970;48.774;9.280;2023-01-09T05:12:47;0.80;;;0.60;;
56102;SDS011;41970;48.774;9.280;2023-01-09T05:15:13;0.80;;;0.60;;
56102;SDS011;41970;48.774;9.280;2023-01-09T05:17:39;0.80;;;0.60;;
56102;SDS011;41970;48.774;9.280;2023-01-09T05:20:05;0.90;;;0.67;;
56102;SDS011;41970;48.774;9.280;2023-01-09T05:22:31;0.80;;;0.70;;
56102;SDS011;41970;48.774;9.280;2023-01-09T05:25:00;1.10;;;0.70;;
56102;SDS011;41970;48.774;9.280;2023-01-09T05:27:27;0.80;;;0.70;;
56102;SDS011;41970;48.774;9.280;2023-01-09T05:29:54;4.60;;;0.70;;
56102;SDS011;41970;48.774;9.280;2023-01-09T05:32:20;0.90;;;0.70;;
56102;SDS011;41970;48.774;9.280;2023-01-09T05:34:49;1.00;;;0.80;;
56102;SDS011;41970;48.774;9.280;2023-01-09T05:37:14;2.23;;;0.97;;
56102;SDS011;41970;48.774;9.280;2023-01-09T05:39:43;0.87;;;0.67;;
56102;SDS011;41970;48.774;9.280;2023-01-09T05:42:09;1.80;;;0.90;;
56102;SDS011;41970;48.774;9.280;2023-01-09T05:44:35;0.93;;;0.77;;
56102;SDS011;41970;48.774;9.280;2023-01-09T05:47:01;1.20;;;0.80;;
56102;SDS011;41970;48.774;9.280;2023-01-09T05:49:26;0.80;;;0.70;;
56102;SDS011;41970;48.774;9.280;2023-01-09T05:51:52;3.77;;;0.90;;
56102;SDS011;41970;48.774;9.280;2023-01-09T05:54:18;1.03;;;0.93;;
56102;SDS011;41970;48.774;9.280;2023-01-09T05:56:53;3.47;;;0.83;;
56102;SDS011;41970;48.774;9.280;2023-01-09T05:59:19;1.40;;;0.83;;
56102;SDS011;41970;48.774;9.280;2023-01-09T06:01:48;1.50;;;1.03;;
56102;SDS011;41970;48.774;9.280;2023-01-09T06:04:14;1.40;;;1.30;;
56102;SDS011;41970;48.774;9.280;2023-01-09T06:06:40;1.20;;;0.90;;
56102;SDS011;41970;48.774;9.280;2023-01-09T06:09:06;1.10;;;0.97;;
56102;SDS011;41970;48.774;9.280;2023-01-09T06:11:32;1.30;;;0.80;;
56102;SDS011;41970;48.774;9.280;2023-01-09T06:14:02;0.90;;;0.70;;
56102;SDS011;41970;48.774;9.280;2023-01-09T06:16:29;2.10;;;1.40;;
56102;SDS011;41970;48.774;9.280;2023-01-09T06:18:58;3.40;;;0.97;;
56102;SDS011;41970;48.774;9.280;2023-01-09T06:21:24;1.90;;;0.90;;
56102;SDS011;41970;48.774;9.280;2023-01-09T06:23:50;1.13;;;0.97;;
56102;SDS011;41970;48.774;9.280;2023-01-09T06:26:16;0.90;;;0.80;;
56102;SDS011;41970;48.774;9.280;2023-01-09T06:28:43;1.13;;;0.70;;
56102;SDS011;41970;48.774;9.280;2023-01-09T06:31:09;1.60;;;1.07;;
56102;SDS011;41970;48.774;9.280;2023-01-09T06:33:35;1.70;;;0.90;;
56102;SDS011;41970;48.774;9.280;2023-01-09T06:38:39;1.23;;;0.80;;
56102;SDS011;41970;48.774;9.280;2023-01-09T06:41:05;1.20;;;1.00;;
56102;SDS011;41970;48.774;9.280;2023-01-09T06:43:31;0.80;;;0.70;;
56102;SDS011;41970;48.774;9.280;2023-01-09T06:45:57;1.20;;;1.03;;
56102;SDS011;41970;48.774;9.280;2023-01-09T06:48:23;1.30;;;0.90;;
56102;SDS011;41970;48.774;9.280;2023-01-09T06:50:49;1.20;;;1.00;;
56102;SDS011;41970;48.774;9.280;2023-01-09T06:53:16;1.00;;;0.80;;
56102;SDS011;41970;48.774;9.280;2023-01-09T06:55:42;1.10;;;0.70;;
56102;SDS011;41970;48.774;9.280;2023-01-09T06:58:09;1.13;;;0.83;;
56102;SDS011;41970;48.774;9.280;2023-01-09T07:00:34;1.10;;;1.00;;
56102;SDS011;41970;48.774;9.280;2023-01-09T07:03:01;1.00;;;0.80;;
56102;SDS011;41970;48.774;9.280;2023-01-09T07:05:27;2.67;;;1.10;;
56102;SDS011;41970;48.774;9.280;2023-01-09T07:07:54;2.73;;;0.80;;
56102;SDS011;41970;48.774;9.280;2023-01-09T07:10:21;2.17;;;0.80;;
56102;SDS011;41970;48.774;9.280;2023-01-09T07:12:47;1.30;;;1.10;;
56102;SDS011;41970;48.774;9.280;2023-01-09T07:15:13;1.40;;;1.00;;
56102;SDS011;41970;48.774;9.280;2023-01-09T07:17:42;4.80;;;1.10;;
56102;SDS011;41970;48.774;9.280;2023-01-09T07:20:08;2.50;;;1.40;;
56102;SDS011;41970;48.774;9.280;2023-01-09T07:22:34;2.07;;;1.40;;
56102;SDS011;41970;48.774;9.280;2023-01-09T07:25:00;1.13;;;0.80;;
56102;SDS011;41970;48.774;9.280;2023-01-09T07:27:26;2.00;;;1.27;;
56102;SDS011;41970;48.774;9.280;2023-01-09T07:29:52;1.20;;;1.10;;
56102;SDS011;41970;48.774;9.280;2023-01-09T07:32:18;3.03;;;1.20;;
56102;SDS011;41970;48.774;9.280;2023-01-09T07:34:44;1.87;;;1.00;;
56102;SDS011;41970;48.774;9.280;2023-01-09T07:37:10;1.40;;;1.10;;
56102;SDS011;41970;48.774;9.280;2023-01-09T07:39:36;1.83;;;1.23;;
56102;SDS011;41970;48.774;9.280;2023-01-09T07:42:02;1.87;;;1.70;;
56102;SDS011;41970;48.774;9.280;2023-01-09T07:44:28;1.23;;;1.00;;
56102;SDS011;41970;48.774;9.280;2023-01-09T07:46:54;3.50;;;1.40;;
56102;SDS011;41970;48.774;9.280;2023-01-09T07:49:19;1.57;;;1.13;;
56102;SDS011;41970;48.774;9.280;2023-01-09T07:51:45;2.33;;;1.33;;
56102;SDS011;41970;48.774;9.280;2023-01-09T07:54:12;3.33;;;1.00;;
56102;SDS011;41970;48.774;9.280;2023-01-09T07:56:38;1.00;;;0.80;;
56102;SDS011;41970;48.774;9.280;2023-01-09T07:59:05;2.13;;;1.53;;
56102;SDS011;41970;48.774;9.280;2023-01-09T08:01:31;3.27;;;0.80;;
56102;SDS011;41970;48.774;9.280;2023-01-09T08:03:56;2.30;;;0.87;;
56102;SDS011;41970;48.774;9.280;2023-01-09T08:06:22;2.60;;;1.07;;
56102;SDS011;41970;48.774;9.280;2023-01-09T08:08:48;1.20;;;0.80;;
56102;SDS011;41970;48.774;9.280;2023-01-09T08:11:17;1.90;;;0.90;;
56102;SDS011;41970;48.774;9.280;2023-01-09T08:13:43;2.20;;;1.13;;
56102;SDS011;41970;48.774;9.280;2023-01-09T08:16:09;1.57;;;1.10;;
56102;SDS011;41970;48.774;9.280;2023-01-09T08:18:35;2.00;;;1.10;;
56102;SDS011;41970;48.774;9.280;2023-01-09T08:21:01;1.33;;;0.83;;
56102;SDS011;41970;48.774;9.280;2023-01-09T08:23:27;4.20;;;2.87;;
56102;SDS011;41970;48.774;9.280;2023-01-09T08:25:53;6.33;;;1.27;;
56102;SDS011;41970;48.774;9.280;2023-01-09T08:28:19;3.00;;;1.10;;
56102;SDS011;41970;48.774;9.280;2023-01-09T08:30:45;6.00;;;1.20;;
56102;SDS011;41970;48.774;9.280;2023-01-09T08:33:11;2.80;;;1.63;;
56102;SDS011;41970;48.774;9.280;2023-01-09T08:35:37;1.60;;;1.00;;
56102;SDS011;41970;48.774;9.280;2023-01-09T08:38:03;5.60;;;1.30;;
56102;SDS011;41970;48.774;9.280;2023-01-09T08:40:29;2.83;;;1.27;;
56102;SDS011;41970;48.774;9.280;2023-01-09T08:42:55;1.33;;;0.97;;
56102;SDS011;41970;48.774;9.280;2023-01-09T08:45:39;2.60;;;1.07;;
56102;SDS011;41970;48.774;9.280;2023-01-09T08:48:24;4.37;;;1.23;;
56102;SDS011;41970;48.774;9.280;2023-01-09T08:50:49;3.03;;;1.07;;
56102;SDS011;41970;48.774;9.280;2023-01-09T08:53:16;1.77;;;1.17;;
56102;SDS011;41970;48.774;9.280;2023-01-09T08:55:42;1.90;;;0.97;;
56102;SDS011;41970;48.774;9.280;2023-01-09T08:58:08;1.77;;;1.30;;
56102;SDS011;41970;48.774;9.280;2023-01-09T09:00:34;2.13;;;1.00;;
56102;SDS011;41970;48.774;9.280;2023-01-09T09:03:00;1.93;;;1.70;;
56102;SDS011;41970;48.774;9.280;2023-01-09T09:05:26;2.10;;;1.10;;
56102;SDS011;41970;48.774;9.280;2023-01-09T09:07:54;1.77;;;1.03;;
56102;SDS011;41970;48.774;9.280;2023-01-09T09:10:25;3.33;;;1.70;;
56102;SDS011;41970;48.774;9.280;2023-01-09T09:12:53;2.43;;;1.40;;
56102;SDS011;41970;48.774;9.280;2023-01-09T09:15:21;1.83;;;1.20;;
56102;SDS011;41970;48.774;9.280;2023-01-09T09:17:51;1.93;;;1.73;;
56102;SDS011;41970;48.774;9.280;2023-01-09T09:20:22;2.10;;;1.50;;
56102;SDS011;41970;48.774;9.280;2023-01-09T09:22:49;4.03;;;1.67;;
56102;SDS011;41970;48.774;9.280;2023-01-09T09:25:15;3.83;;;1.90;;
56102;SDS011;41970;48.774;9.280;2023-01-09T09:27:42;2.03;;;1.30;;
56102;SDS011;41970;48.774;9.280;2023-01-09T09:30:09;7.90;;;5.47;;
56102;SDS011;41970;48.774;9.280;2023-01-09T09:32:36;3.60;;;2.07;;
56102;SDS011;41970;48.774;9.280;2023-01-09T09:35:03;3.90;;;1.60;;
56102;SDS011;41970;48.774;9.280;2023-01-09T09:37:29;2.87;;;1.67;;
56102;SDS011;41970;48.774;9.280;2023-01-09T09:39:55;1.57;;;1.47;;
56102;SDS011;41970;48.774;9.280;2023-01-09T09:42:25;2.90;;;1.47;;
56102;SDS011;41970;48.774;9.280;2023-01-09T09:53:26;1.87;;;1.03;;
56102;SDS011;41970;48.774;9.280;2023-01-09T09:55:59;2.60;;;1.30;;
56102;SDS011;41970;48.774;9.280;2023-01-09T10:01:01;2.13;;;1.50;;
56102;SDS011;41970;48.774;9.280;2023-01-09T10:09:08;3.80;;;1.47;;
56102;SDS011;41970;48.774;9.280;2023-01-09T10:14:25;5.23;;;1.67;;
56102;SDS011;41970;48.774;9.280;2023-01-09T10:33:54;5.70;;;1.70;;
56102;SDS011;41970;48.774;9.280;2023-01-09T10:36:37;1.83;;;1.37;;
56102;SDS011;41970;48.774;9.280;2023-01-09T10:39:53;3.77;;;1.37;;
56102;SDS011;41970;48.774;9.280;2023-01-09T10:42:30;2.40;;;1.30;;
56102;SDS011;41970;48.774;9.280;2023-01-09T10:47:48;2.60;;;1.30;;
56102;SDS011;41970;48.774;9.280;2023-01-09T10:50:17;5.13;;;2.03;;
56102;SDS011;41970;48.774;9.280;2023-01-09T10:52:48;4.60;;;2.70;;
56102;SDS011;41970;48.774;9.280;2023-01-09T10:55:16;2.67;;;1.87;;
56102;SDS011;41970;48.774;9.280;2023-01-09T10:57:52;4.30;;;1.30;;
56102;SDS011;41970;48.774;9.280;2023-01-09T11:00:22;7.07;;;1.40;;
56102;SDS011;41970;48.774;9.280;2023-01-09T11:02:50;2.20;;;1.40;;
56102;SDS011;41970;48.774;9.280;2023-01-09T11:05:29;1.87;;;1.40;;
56102;SDS011;41970;48.774;9.280;2023-01-09T11:08:00;3.40;;;1.60;;
56102;SDS011;41970;48.774;9.280;2023-01-09T11:13:18;2.97;;;1.10;;
56102;SDS011;41970;48.774;9.280;2023-01-09T11:15:55;2.43;;;1.10;;
56102;SDS011;41970;48.774;9.280;2023-01-09T11:18:23;8.63;;;2.10;;
56102;SDS011;41970;48.774;9.280;2023-01-09T11:20:50;2.97;;;1.73;;
56102;SDS011;41970;48.774;9.280;2023-01-09T11:23:37;2.37;;;1.50;;
56102;SDS011;41970;48.774;9.280;2023-01-09T11:26:02;3.53;;;1.30;;
56102;SDS011;41970;48.774;9.280;2023-01-09T11:28:28;2.70;;;1.43;;
56102;SDS011;41970;48.774;9.280;2023-01-09T11:30:55;5.67;;;1.40;;
56102;SDS011;41970;48.774;9.280;2023-01-09T11:33:27;2.20;;;1.40;;
56102;SDS011;41970;48.774;9.280;2023-01-09T11:35:57;2.90;;;1.50;;
56102;SDS011;41970;48.774;9.280;2023-01-09T11:38:29;4.00;;;1.33;;
56102;SDS011;41970;48.774;9.280;2023-01-09T11:40:58;3.43;;;1.87;;
56102;SDS011;41970;48.774;9.280;2023-01-09T11:43:34;1.97;;;1.23;;
56102;SDS011;41970;48.774;9.280;2023-01-09T11:46:04;3.60;;;3.30;;
56102;SDS011;41970;48.774;9.280;2023-01-09T11:48:35;1.77;;;1.43;;
56102;SDS011;41970;48.774;9.280;2023-01-09T11:51:22;5.60;;;2.07;;
56102;SDS011;41970;48.774;9.280;2023-01-09T11:56:51;2.67;;;1.63;;
56102;SDS011;41970;48.774;9.280;2023-01-09T11:59:21;3.37;;;1.90;;
56102;SDS011;41970;48.774;9.280;2023-01-09T12:04:29;4.47;;;1.47;;
56102;SDS011;41970;48.774;9.280;2023-01-09T12:12:29;3.40;;;1.53;;
56102;SDS011;41970;48.774;9.280;2023-01-09T12:15:02;3.40;;;1.47;;
56102;SDS011;41970;48.774;9.280;2023-01-09T12:20:39;3.50;;;1.80;;
56102;SDS011;41970;48.774;9.280;2023-01-09T12:31:37;3.70;;;1.50;;
56102;SDS011;41970;48.774;9.280;2023-01-09T12:39:51;8.73;;;2.67;;
56102;SDS011;41970;48.774;9.280;2023-01-09T12:42:53;1.83;;;1.40;;
56102;SDS011;41970;48.774;9.280;2023-01-09T12:48:58;2.90;;;1.33;;
56102;SDS011;41970;48.774;9.280;2023-01-09T12:51:44;4.10;;;1.57;;
56102;SDS011;41970;48.774;9.280;2023-01-09T12:56:50;6.20;;;1.83;;
56102;SDS011;41970;48.774;9.280;2023-01-09T12:59:25;2.10;;;1.83;;
56102;SDS011;41970;48.774;9.280;2023-01-09T13:05:36;3.47;;;1.43;;
56102;SDS011;41970;48.774;9.280;2023-01-09T13:08:16;5.77;;;1.37;;
56102;SDS011;41970;48.774;9.280;2023-01-09T13:10:52;3.67;;;1.60;;
56102;SDS011;41970;48.774;9.280;2023-01-09T13:14:24;3.20;;;2.90;;
56102;SDS011;41970;48.774;9.280;2023-01-09T13:16:45;2.03;;;1.10;;
56102;SDS011;41970;48.774;9.280;2023-01-09T13:19:19;2.50;;;1.10;;
56102;SDS011;41970;48.774;9.280;2023-01-09T13:22:04;3.80;;;1.57;;
56102;SDS011;41970;48.774;9.280;2023-01-09T13:27:12;3.37;;;1.53;;
56102;SDS011;41970;48.774;9.280;2023-01-09T13:29:46;2.30;;;1.00;;
56102;SDS011;41970;48.774;9.280;2023-01-09T13:35:18;1.80;;;1.47;;
56102;SDS011;41970;48.774;9.280;2023-01-09T13:37:48;1.67;;;1.30;;
56102;SDS011;41970;48.774;9.280;2023-01-09T13:43:04;3.20;;;1.20;;
56102;SDS011;41970;48.774;9.280;2023-01-09T13:45:34;3.67;;;1.80;;
56102;SDS011;41970;48.774;9.280;2023-01-09T13:50:35;2.03;;;1.63;;
56102;SDS011;41970;48.774;9.280;2023-01-09T13:58:27;3.13;;;2.47;;
56102;SDS011;41970;48.774;9.280;2023-01-09T14:06:33;2.20;;;2.00;;
56102;SDS011;41970;48.774;9.280;2023-01-09T14:09:06;1.80;;;1.43;;
56102;SDS011;41970;48.774;9.280;2023-01-09T14:11:44;2.43;;;1.33;;
56102;SDS011;41970;48.774;9.280;2023-01-09T14:14:27;4.03;;;1.40;;
56102;SDS011;41970;48.774;9.280;2023-01-09T14:16:57;1.40;;;1.10;;
56102;SDS011;41970;48.774;9.280;2023-01-09T14:19:37;0.93;;;0.80;;
56102;SDS011;41970;48.774;9.280;2023-01-09T14:22:05;1.43;;;0.90;;
56102;SDS011;41970;48.774;9.280;2023-01-09T14:24:47;1.67;;;0.90;;
56102;SDS011;41970;48.774;9.280;2023-01-09T14:30:38;1.30;;;0.73;;
56102;SDS011;41970;48.774;9.280;2023-01-09T14:38:33;1.80;;;1.00;;
56102;SDS011;41970;48.774;9.280;2023-01-09T14:41:18;2.37;;;0.80;;
56102;SDS011;41970;48.774;9.280;2023-01-09T14:55:03;1.77;;;0.70;;
56102;SDS011;41970;48.774;9.280;2023-01-09T14:57:41;1.30;;;0.77;;
56102;SDS011;41970;48.774;9.280;2023-01-09T15:02:36;1.10;;;0.80;;
56102;SDS011;41970;48.774;9.280;2023-01-09T15:05:05;1.40;;;1.00;;
56102;SDS011;41970;48.774;9.280;2023-01-09T15:07:43;1.93;;;1.00;;
56102;SDS011;41970;48.774;9.280;2023-01-09T15:10:16;1.30;;;1.00;;
56102;SDS011;41970;48.774;9.280;2023-01-09T15:12:45;1.50;;;1.10;;
56102;SDS011;41970;48.774;9.280;2023-01-09T15:15:13;1.80;;;0.80;;
56102;SDS011;41970;48.774;9.280;2023-01-09T15:17:43;7.07;;;1.10;;
56102;SDS011;41970;48.774;9.280;2023-01-09T15:20:17;1.30;;;1.10;;
56102;SDS011;41970;48.774;9.280;2023-01-09T15:22:50;2.83;;;1.33;;
56102;SDS011;41970;48.774;9.280;2023-01-09T15:25:24;1.70;;;1.00;;
56102;SDS011;41970;48.774;9.280;2023-01-09T15:27:59;1.20;;;1.00;;
56102;SDS011;41970;48.774;9.280;2023-01-09T15:30:27;1.00;;;0.83;;
56102;SDS011;41970;48.774;9.280;2023-01-09T15:32:58;2.50;;;1.20;;
56102;SDS011;41970;48.774;9.280;2023-01-09T15:35:28;2.13;;;1.17;;
56102;SDS011;41970;48.774;9.280;2023-01-09T15:37:54;4.63;;;1.10;;
56102;SDS011;41970;48.774;9.280;2023-01-09T15:40:23;3.27;;;1.00;;
56102;SDS011;41970;48.774;9.280;2023-01-09T15:42:52;2.30;;;1.57;;
56102;SDS011;41970;48.774;9.280;2023-01-09T15:48:48;1.40;;;1.23;;
56102;SDS011;41970;48.774;9.280;2023-01-09T15:51:06;1.30;;;0.93;;
56102;SDS011;41970;48.774;9.280;2023-01-09T15:53:49;1.60;;;1.10;;
56102;SDS011;41970;48.774;9.280;2023-01-09T15:56:22;2.50;;;1.70;;
56102;SDS011;41970;48.774;9.280;2023-01-09T15:58:58;2.57;;;1.20;;
56102;SDS011;41970;48.774;9.280;2023-01-09T16:01:35;2.00;;;1.20;;
56102;SDS011;41970;48.774;9.280;2023-01-09T16:06:40;1.93;;;1.13;;
56102;SDS011;41970;48.774;9.280;2023-01-09T16:09:15;1.73;;;0.93;;
56102;SDS011;41970;48.774;9.280;2023-01-09T16:11:52;2.13;;;1.43;;
56102;SDS011;41970;48.774;9.280;2023-01-09T16:14:25;3.10;;;1.00;;
56102;SDS011;41970;48.774;9.280;2023-01-09T16:16:59;1.30;;;1.10;;
56102;SDS011;41970;48.774;9.280;2023-01-09T16:19:44;3.30;;;1.60;;
56102;SDS011;41970;48.774;9.280;2023-01-09T16:22:30;1.13;;;1.03;;
56102;SDS011;41970;48.774;9.280;2023-01-09T16:24:58;1.83;;;1.60;;
56102;SDS011;41970;48.774;9.280;2023-01-09T16:27:27;3.97;;;3.13;;
56102;SDS011;41970;48.774;9.280;2023-01-09T16:29:55;2.40;;;1.50;;
56102;SDS011;41970;48.774;9.280;2023-01-09T16:32:27;2.03;;;1.23;;
56102;SDS011;41970;48.774;9.280;2023-01-09T16:34:57;1.33;;;1.20;;
56102;SDS011;41970;48.774;9.280;2023-01-09T16:37:26;3.70;;;2.23;;
56102;SDS011;41970;48.774;9.280;2023-01-09T16:42:53;2.97;;;2.07;;
56102;SDS011;41970;48.774;9.280;2023-01-09T16:45:39;2.43;;;1.73;;
56102;SDS011;41970;48.774;9.280;2023-01-09T16:48:10;1.50;;;1.40;;
56102;SDS011;41970;48.774;9.280;2023-01-09T16:50:42;2.20;;;1.43;;
56102;SDS011;41970;48.774;9.280;2023-01-09T16:53:16;4.83;;;2.47;;
56102;SDS011;41970;48.774;9.280;2023-01-09T16:55:44;2.97;;;1.80;;
56102;SDS011;41970;48.774;9.280;2023-01-09T16:58:14;1.87;;;1.40;;
56102;SDS011;41970;48.774;9.280;2023-01-09T17:00:58;3.00;;;1.90;;
56102;SDS011;41970;48.774;9.280;2023-01-09T17:03:24;4.17;;;3.00;;
56102;SDS011;41970;48.774;9.280;2023-01-09T17:05:51;3.03;;;1.40;;
56102;SDS011;41970;48.774;9.280;2023-01-09T17:08:24;2.53;;;2.13;;
56102;SDS011;41970;48.774;9.280;2023-01-09T17:10:53;1.93;;;1.60;;
56102;SDS011;41970;48.774;9.280;2023-01-09T17:13:20;1.73;;;1.37;;
56102;SDS011;41970;48.774;9.280;2023-01-09T17:15:47;3.53;;;1.50;;
56102;SDS011;41970;48.774;9.280;2023-01-09T17:18:14;1.90;;;0.97;;
56102;SDS011;41970;48.774;9.280;2023-01-09T17:20:42;1.30;;;1.00;;
56102;SDS011;41970;48.774;9.280;2023-01-09T17:23:09;1.23;;;1.13;;
56102;SDS011;41970;48.774;9.280;2023-01-09T17:25:35;3.33;;;2.30;;
56102;SDS011;41970;48.774;9.280;2023-01-09T17:28:20;1.57;;;1.47;;
56102;SDS011;41970;48.774;9.280;2023-01-09T17:33:30;2.30;;;1.07;;
56102;SDS011;41970;48.774;9.280;2023-01-09T17:35:57;1.43;;;1.13;;
56102;SDS011;41970;48.774;9.280;2023-01-09T17:38:23;1.20;;;1.10;;
56102;SDS011;41970;48.774;9.280;2023-01-09T17:40:49;1.80;;;1.33;;
56102;SDS011;41970;48.774;9.280;2023-01-09T17:43:16;1.87;;;1.23;;
56102;SDS011;41970;48.774;9.280;2023-01-09T17:45:43;2.80;;;1.40;;
56102;SDS011;41970;48.774;9.280;2023-01-09T17:48:16;3.03;;;1.40;;
56102;SDS011;41970;48.774;9.280;2023-01-09T17:50:48;1.20;;;1.10;;